sensor_id;sensor_type;location;lat;lon;timestamp;temperature;humidity
7317;DHT22;3699;51.462;6.696;2022-12-19T00:00:44;2.00;99.90
7317;DHT22;3699;51.462;6.696;2022-12-19T00:03:12;2.00;99.90
7317;DHT22;3699;51.462;6.696;2022-12-19T00:05:40;2.00;99.90
7317;DHT22;3699;51.462;6.696;2022-12-19T00:08:13;2.00;99.90
7317;DHT22;3699;51.462;6.696;2022-12-19T00:10:40;2.00;99.90
7317;DHT22;3699;51.462;6.696;2022-12-19T00:13:06;2.00;99.90
7317;DHT22;3699;51.462;6.696;2022-12-19T00:15:33;1.90;99.90
7317;DHT22;3699;51.462;6.696;2022-12-19T00:18:00;2.00;99.90
7317;DHT22;3699;51.462;6.696;2022-12-19T00:20:28;2.00;99.90
7317;DHT22;3699;51.462;6.696;2022-12-19T00:22:56;2.10;99.90
7317;DHT22;3699;51.462;6.696;2022-12-19T00:25:23;2.10;99.90
7317;DHT22;3699;51.462;6.696;2022-12-19T00:27:49;2.10;99.90
7317;DHT22;3699;51.462;6.696;2022-12-19T00:30:16;2.20;99.90
7317;DHT22;3699;51.462;6.696;2022-12-19T00:32:43;2.10;99.90
7317;DHT22;3699;51.462;6.696;2022-12-19T00:35:10;2.20;99.90
7317;DHT22;3699;51.462;6.696;2022-12-19T00:37:38;2.00;99.90
7317;DHT22;3699;51.462;6.696;2022-12-19T00:40:05;2.20;99.90
7317;DHT22;3699;51.462;6.696;2022-12-19T00:42:32;2.10;99.90
7317;DHT22;3699;51.462;6.696;2022-12-19T00:44:59;2.10;99.90
7317;DHT22;3699;51.462;6.696;2022-12-19T00:47:26;2.20;99.90
7317;DHT22;3699;51.462;6.696;2022-12-19T00:49:53;2.20;99.90
7317;DHT22;3699;51.462;6.696;2022-12-19T00:52:19;2.30;99.90
7317;DHT22;3699;51.462;6.696;2022-12-19T00:54:47;2.20;99.90
7317;DHT22;3699;51.462;6.696;2022-12-19T00:57:14;2.30;99.90
7317;DHT22;3699;51.462;6.696;2022-12-19T00:59:41;2.30;99.90
7317;DHT22;3699;51.462;6.696;2022-12-19T01:02:08;2.30;99.90
7317;DHT22;3699;51.462;6.696;2022-12-19T01:04:34;2.30;99.90
7317;DHT22;3699;51.462;6.696;2022-12-19T01:07:01;2.30;99.90
7317;DHT22;3699;51.462;6.696;2022-12-19T01:09:30;2.30;99.90
7317;DHT22;3699;51.462;6.696;2022-12-19T01:11:58;2.40;99.90
7317;DHT22;3699;51.462;6.696;2022-12-19T01:14:43;2.40;99.90
7317;DHT22;3699;51.462;6.696;2022-12-19T01:17:10;2.40;99.90
7317;DHT22;3699;51.462;6.696;2022-12-19T01:19:36;2.40;99.90
7317;DHT22;3699;51.462;6.696;2022-12-19T01:22:03;2.40;99.90
7317;DHT22;3699;51.462;6.696;2022-12-19T01:24:30;2.40;99.90
7317;DHT22;3699;51.462;6.696;2022-12-19T01:26:58;2.50;99.90
7317;DHT22;3699;51.462;6.696;2022-12-19T01:29:25;2.50;99.90
7317;DHT22;3699;51.462;6.696;2022-12-19T01:31:51;2.50;99.90
7317;DHT22;3699;51.462;6.696;2022-12-19T01:34:18;2.50;99.90
7317;DHT22;3699;51.462;6.696;2022-12-19T01:36:45;2.50;99.90
7317;DHT22;3699;51.462;6.696;2022-12-19T01:39:11;2.50;99.90
7317;DHT22;3699;51.462;6.696;2022-12-19T01:41:38;2.50;99.90
7317;DHT22;3699;51.462;6.696;2022-12-19T01:44:07;2.50;99.90
7317;DHT22;3699;51.462;6.696;2022-12-19T01:46:36;2.50;99.90
7317;DHT22;3699;51.462;6.696;2022-12-19T01:49:06;2.50;99.90
7317;DHT22;3699;51.462;6.696;2022-12-19T01:51:39;2.50;99.90
7317;DHT22;3699;51.462;6.696;2022-12-19T01:54:09;2.60;99.90
7317;DHT22;3699;51.462;6.696;2022-12-19T01:56:39;2.60;99.90
7317;DHT22;3699;51.462;6.696;2022-12-19T01:59:12;2.70;99.90
7317;DHT22;3699;51.462;6.696;2022-12-19T02:01:41;2.70;99.90
7317;DHT22;3699;51.462;6.696;2022-12-19T02:04:11;2.70;99.90
7317;DHT22;3699;51.462;6.696;2022-12-19T02:06:39;2.80;99.90
7317;DHT22;3699;51.462;6.696;2022-12-19T02:09:07;2.80;99.90
7317;DHT22;3699;51.462;6.696;2022-12-19T02:11:34;2.80;99.90
7317;DHT22;3699;51.462;6.696;2022-12-19T02:14:01;2.80;99.90
7317;DHT22;3699;51.462;6.696;2022-12-19T02:16:38;2.90;99.90
7317;DHT22;3699;51.462;6.696;2022-12-19T02:22:19;3.00;99.90
7317;DHT22;3699;51.462;6.696;2022-12-19T02:25:02;3.00;99.90
7317;DHT22;3699;51.462;6.696;2022-12-19T02:27:53;3.00;99.90
7317;DHT22;3699;51.462;6.696;2022-12-19T02:30:44;3.00;99.90
7317;DHT22;3699;51.462;6.696;2022-12-19T02:33:17;3.10;99.90
7317;DHT22;3699;51.462;6.696;2022-12-19T02:35:51;3.10;99.90
7317;DHT22;3699;51.462;6.696;2022-12-19T02:38:23;3.10;99.90
7317;DHT22;3699;51.462;6.696;2022-12-19T02:40:56;3.20;99.90
7317;DHT22;3699;51.462;6.696;2022-12-19T02:43:26;3.20;99.90
7317;DHT22;3699;51.462;6.696;2022-12-19T02:45:55;3.20;99.90
7317;DHT22;3699;51.462;6.696;2022-12-19T02:48:23;3.30;99.90
7317;DHT22;3699;51.462;6.696;2022-12-19T02:50:50;3.30;99.90
7317;DHT22;3699;51.462;6.696;2022-12-19T02:53:16;3.30;99.90
7317;DHT22;3699;51.462;6.696;2022-12-19T02:55:48;3.40;99.90
7317;DHT22;3699;51.462;6.696;2022-12-19T02:58:42;3.40;99.90
7317;DHT22;3699;51.462;6.696;2022-12-19T03:01:22;3.40;99.90
7317;DHT22;3699;51.462;6.696;2022-12-19T03:03:58;3.50;99.90
7317;DHT22;3699;51.462;6.696;2022-12-19T03:06:31;3.90;99.90
7317;DHT22;3699;51.462;6.696;2022-12-19T03:09:06;3.50;99.90
7317;DHT22;3699;51.462;6.696;2022-12-19T03:11:38;3.50;99.90
7317;DHT22;3699;51.462;6.696;2022-12-19T03:14:07;3.50;99.90
7317;DHT22;3699;51.462;6.696;2022-12-19T03:16:37;3.50;99.90
7317;DHT22;3699;51.462;6.696;2022-12-19T03:19:07;3.50;99.90
7317;DHT22;3699;51.462;6.696;2022-12-19T03:21:37;3.50;99.90
7317;DHT22;3699;51.462;6.696;2022-12-19T03:24:06;3.60;99.90
7317;DHT22;3699;51.462;6.696;2022-12-19T03:26:37;3.50;99.90
7317;DHT22;3699;51.462;6.696;2022-12-19T03:29:09;3.50;99.90
7317;DHT22;3699;51.462;6.696;2022-12-19T03:31:41;3.50;99.90
7317;DHT22;3699;51.462;6.696;2022-12-19T03:34:15;3.60;99.90
7317;DHT22;3699;51.462;6.696;2022-12-19T03:36:45;3.60;99.90
7317;DHT22;3699;51.462;6.696;2022-12-19T03:39:13;3.60;99.90
7317;DHT22;3699;51.462;6.696;2022-12-19T03:41:42;3.60;99.90
7317;DHT22;3699;51.462;6.696;2022-12-19T03:44:30;3.50;99.90
7317;DHT22;3699;51.462;6.696;2022-12-19T03:47:03;3.50;99.90
7317;DHT22;3699;51.462;6.696;2022-12-19T03:49:31;3.60;99.90
7317;DHT22;3699;51.462;6.696;2022-12-19T03:52:03;3.60;99.90
7317;DHT22;3699;51.462;6.696;2022-12-19T03:54:38;3.60;99.90
7317;DHT22;3699;51.462;6.696;2022-12-19T03:57:08;3.60;99.90
7317;DHT22;3699;51.462;6.696;2022-12-19T03:59:39;3.60;99.90
7317;DHT22;3699;51.462;6.696;2022-12-19T04:02:11;3.60;99.90
7317;DHT22;3699;51.462;6.696;2022-12-19T04:04:42;3.60;99.90
7317;DHT22;3699;51.462;6.696;2022-12-19T04:07:10;3.60;99.90
7317;DHT22;3699;51.462;6.696;2022-12-19T04:09:38;3.70;99.90
7317;DHT22;3699;51.462;6.696;2022-12-19T04:12:10;3.70;99.90
7317;DHT22;3699;51.462;6.696;2022-12-19T04:14:39;3.70;99.90
7317;DHT22;3699;51.462;6.696;2022-12-19T04:17:12;3.70;99.90
7317;DHT22;3699;51.462;6.696;2022-12-19T04:19:44;3.70;99.90
7317;DHT22;3699;51.462;6.696;2022-12-19T04:22:16;3.70;99.90
7317;DHT22;3699;51.462;6.696;2022-12-19T04:24:47;3.70;99.90
7317;DHT22;3699;51.462;6.696;2022-12-19T04:27:14;3.50;99.90
7317;DHT22;3699;51.462;6.696;2022-12-19T04:29:42;3.70;99.90
7317;DHT22;3699;51.462;6.696;2022-12-19T04:32:09;3.70;99.90
7317;DHT22;3699;51.462;6.696;2022-12-19T04:34:37;3.40;99.90
7317;DHT22;3699;51.462;6.696;2022-12-19T04:37:04;3.80;99.90
7317;DHT22;3699;51.462;6.696;2022-12-19T04:39:32;3.70;99.90
7317;DHT22;3699;51.462;6.696;2022-12-19T04:41:58;3.80;99.90
7317;DHT22;3699;51.462;6.696;2022-12-19T04:44:25;3.80;99.90
7317;DHT22;3699;51.462;6.696;2022-12-19T04:46:52;3.80;99.90
7317;DHT22;3699;51.462;6.696;2022-12-19T04:49:19;3.80;99.90
7317;DHT22;3699;51.462;6.696;2022-12-19T04:51:47;3.80;99.90
7317;DHT22;3699;51.462;6.696;2022-12-19T04:54:14;3.80;99.90
7317;DHT22;3699;51.462;6.696;2022-12-19T04:56:41;3.80;99.90
7317;DHT22;3699;51.462;6.696;2022-12-19T04:59:08;4.30;99.90
7317;DHT22;3699;51.462;6.696;2022-12-19T05:01:35;3.80;99.90
7317;DHT22;3699;51.462;6.696;2022-12-19T05:04:02;3.80;99.90
7317;DHT22;3699;51.462;6.696;2022-12-19T05:06:29;4.00;99.90
7317;DHT22;3699;51.462;6.696;2022-12-19T05:08:57;4.00;99.90
7317;DHT22;3699;51.462;6.696;2022-12-19T05:11:23;3.80;99.90
7317;DHT22;3699;51.462;6.696;2022-12-19T05:13:50;3.90;99.90
7317;DHT22;3699;51.462;6.696;2022-12-19T05:16:17;3.80;99.90
7317;DHT22;3699;51.462;6.696;2022-12-19T05:18:44;3.90;99.90
7317;DHT22;3699;51.462;6.696;2022-12-19T05:21:11;3.90;99.90
7317;DHT22;3699;51.462;6.696;2022-12-19T05:23:38;4.00;99.90
7317;DHT22;3699;51.462;6.696;2022-12-19T05:26:06;3.90;99.90
7317;DHT22;3699;51.462;6.696;2022-12-19T05:28:33;3.90;99.90
7317;DHT22;3699;51.462;6.696;2022-12-19T05:31:04;4.00;99.90
7317;DHT22;3699;51.462;6.696;2022-12-19T05:33:31;4.00;99.90
7317;DHT22;3699;51.462;6.696;2022-12-19T05:35:58;4.10;99.90
7317;DHT22;3699;51.462;6.696;2022-12-19T05:38:25;4.10;99.90
7317;DHT22;3699;51.462;6.696;2022-12-19T05:40:52;4.10;99.90
7317;DHT22;3699;51.462;6.696;2022-12-19T05:43:20;4.10;99.90
7317;DHT22;3699;51.462;6.696;2022-12-19T05:45:47;4.10;99.90
7317;DHT22;3699;51.462;6.696;2022-12-19T05:48:14;4.20;99.90
7317;DHT22;3699;51.462;6.696;2022-12-19T05:50:40;4.20;99.90
7317;DHT22;3699;51.462;6.696;2022-12-19T05:53:07;4.30;99.90
7317;DHT22;3699;51.462;6.696;2022-12-19T05:55:34;4.30;99.90
7317;DHT22;3699;51.462;6.696;2022-12-19T05:58:01;4.30;99.90
7317;DHT22;3699;51.462;6.696;2022-12-19T06:00:29;4.30;99.90
7317;DHT22;3699;51.462;6.696;2022-12-19T06:02:56;4.30;99.90
7317;DHT22;3699;51.462;6.696;2022-12-19T06:05:22;4.30;99.90
7317;DHT22;3699;51.462;6.696;2022-12-19T06:07:49;4.40;99.90
7317;DHT22;3699;51.462;6.696;2022-12-19T06:10:16;4.40;99.90
7317;DHT22;3699;51.462;6.696;2022-12-19T06:12:43;4.40;99.90
7317;DHT22;3699;51.462;6.696;2022-12-19T06:15:10;4.40;99.90
7317;DHT22;3699;51.462;6.696;2022-12-19T06:17:38;4.40;99.90
7317;DHT22;3699;51.462;6.696;2022-12-19T06:20:06;4.50;99.90
7317;DHT22;3699;51.462;6.696;2022-12-19T06:22:33;4.50;99.90
7317;DHT22;3699;51.462;6.696;2022-12-19T06:24:59;4.50;99.90
7317;DHT22;3699;51.462;6.696;2022-12-19T06:27:26;4.50;99.90
7317;DHT22;3699;51.462;6.696;2022-12-19T06:29:53;4.60;99.90
7317;DHT22;3699;51.462;6.696;2022-12-19T06:32:20;4.70;99.90
7317;DHT22;3699;51.462;6.696;2022-12-19T06:34:48;4.70;99.90
7317;DHT22;3699;51.462;6.696;2022-12-19T06:37:14;4.40;99.90
7317;DHT22;3699;51.462;6.696;2022-12-19T06:39:41;4.70;99.90
7317;DHT22;3699;51.462;6.696;2022-12-19T06:42:08;4.80;99.90
7317;DHT22;3699;51.462;6.696;2022-12-19T06:44:50;4.80;99.90
7317;DHT22;3699;51.462;6.696;2022-12-19T06:47:18;4.80;99.90
7317;DHT22;3699;51.462;6.696;2022-12-19T06:49:45;4.80;99.90
7317;DHT22;3699;51.462;6.696;2022-12-19T06:52:14;4.80;99.90
7317;DHT22;3699;51.462;6.696;2022-12-19T06:54:41;4.90;99.90
7317;DHT22;3699;51.462;6.696;2022-12-19T06:57:08;4.90;99.90
7317;DHT22;3699;51.462;6.696;2022-12-19T06:59:35;4.90;99.90
7317;DHT22;3699;51.462;6.696;2022-12-19T07:02:08;5.00;99.90
7317;DHT22;3699;51.462;6.696;2022-12-19T07:04:42;5.00;99.90
7317;DHT22;3699;51.462;6.696;2022-12-19T07:07:11;5.00;99.90
7317;DHT22;3699;51.462;6.696;2022-12-19T07:09:39;5.00;99.90
7317;DHT22;3699;51.462;6.696;2022-12-19T07:12:06;5.00;99.90
7317;DHT22;3699;51.462;6.696;2022-12-19T07:14:33;5.10;99.90
7317;DHT22;3699;51.462;6.696;2022-12-19T07:17:01;5.10;99.90
7317;DHT22;3699;51.462;6.696;2022-12-19T07:19:30;5.10;99.90
7317;DHT22;3699;51.462;6.696;2022-12-19T07:21:58;5.10;99.90
7317;DHT22;3699;51.462;6.696;2022-12-19T07:24:26;5.20;99.90
7317;DHT22;3699;51.462;6.696;2022-12-19T07:26:54;5.20;99.90
7317;DHT22;3699;51.462;6.696;2022-12-19T07:29:21;5.20;99.90
7317;DHT22;3699;51.462;6.696;2022-12-19T07:31:48;5.30;99.90
7317;DHT22;3699;51.462;6.696;2022-12-19T07:34:15;5.30;99.90
7317;DHT22;3699;51.462;6.696;2022-12-19T07:36:41;5.40;99.90
7317;DHT22;3699;51.462;6.696;2022-12-19T07:39:08;5.40;99.90
7317;DHT22;3699;51.462;6.696;2022-12-19T07:41:35;5.40;99.90
7317;DHT22;3699;51.462;6.696;2022-12-19T07:44:04;5.40;99.90
7317;DHT22;3699;51.462;6.696;2022-12-19T07:46:31;5.40;99.90
7317;DHT22;3699;51.462;6.696;2022-12-19T07:48:58;5.50;99.90
7317;DHT22;3699;51.462;6.696;2022-12-19T07:51:25;5.50;99.90
7317;DHT22;3699;51.462;6.696;2022-12-19T07:53:52;5.50;99.90
7317;DHT22;3699;51.462;6.696;2022-12-19T07:56:18;5.50;99.90
7317;DHT22;3699;51.462;6.696;2022-12-19T07:58:45;5.60;99.90
7317;DHT22;3699;51.462;6.696;2022-12-19T08:01:13;5.60;99.90
7317;DHT22;3699;51.462;6.696;2022-12-19T08:03:40;5.60;99.90
7317;DHT22;3699;51.462;6.696;2022-12-19T08:06:08;5.60;99.90
7317;DHT22;3699;51.462;6.696;2022-12-19T08:08:35;5.60;99.90
7317;DHT22;3699;51.462;6.696;2022-12-19T08:11:06;5.70;99.90
7317;DHT22;3699;51.462;6.696;2022-12-19T08:13:33;5.70;99.90
7317;DHT22;3699;51.462;6.696;2022-12-19T08:16:00;5.70;99.90
7317;DHT22;3699;51.462;6.696;2022-12-19T08:18:28;5.70;99.90
7317;DHT22;3699;51.462;6.696;2022-12-19T08:20:55;5.70;99.90
7317;DHT22;3699;51.462;6.696;2022-12-19T08:23:22;5.80;99.90
7317;DHT22;3699;51.462;6.696;2022-12-19T08:25:57;5.80;99.90
7317;DHT22;3699;51.462;6.696;2022-12-19T08:28:24;5.80;99.90
7317;DHT22;3699;51.462;6.696;2022-12-19T08:30:51;5.80;99.90
7317;DHT22;3699;51.462;6.696;2022-12-19T08:33:18;5.90;99.90
7317;DHT22;3699;51.462;6.696;2022-12-19T08:35:46;5.90;99.90
7317;DHT22;3699;51.462;6.696;2022-12-19T08:38:13;5.90;99.90
7317;DHT22;3699;51.462;6.696;2022-12-19T08:40:39;5.90;99.90
7317;DHT22;3699;51.462;6.696;2022-12-19T08:43:06;5.90;99.90
7317;DHT22;3699;51.462;6.696;2022-12-19T08:45:33;6.00;99.90
7317;DHT22;3699;51.462;6.696;2022-12-19T08:48:00;6.00;99.90
7317;DHT22;3699;51.462;6.696;2022-12-19T08:50:26;6.00;99.90
7317;DHT22;3699;51.462;6.696;2022-12-19T08:52:54;6.10;99.90
7317;DHT22;3699;51.462;6.696;2022-12-19T08:55:21;6.10;99.90
7317;DHT22;3699;51.462;6.696;2022-12-19T08:57:48;6.10;99.90
7317;DHT22;3699;51.462;6.696;2022-12-19T09:00:15;6.10;99.90
7317;DHT22;3699;51.462;6.696;2022-12-19T09:02:42;6.10;99.90
7317;DHT22;3699;51.462;6.696;2022-12-19T09:05:09;6.20;99.90
7317;DHT22;3699;51.462;6.696;2022-12-19T09:07:36;6.20;99.90
7317;DHT22;3699;51.462;6.696;2022-12-19T09:10:06;6.20;99.90
7317;DHT22;3699;51.462;6.696;2022-12-19T09:12:33;6.30;99.90
7317;DHT22;3699;51.462;6.696;2022-12-19T09:15:00;6.40;99.90
7317;DHT22;3699;51.462;6.696;2022-12-19T09:17:27;6.40;99.90
7317;DHT22;3699;51.462;6.696;2022-12-19T09:19:54;6.40;99.90
7317;DHT22;3699;51.462;6.696;2022-12-19T09:22:20;6.40;99.90
7317;DHT22;3699;51.462;6.696;2022-12-19T09:24:47;6.50;99.90
7317;DHT22;3699;51.462;6.696;2022-12-19T09:27:15;6.40;99.90
7317;DHT22;3699;51.462;6.696;2022-12-19T09:29:42;6.40;99.90
7317;DHT22;3699;51.462;6.696;2022-12-19T09:32:09;6.50;99.90
7317;DHT22;3699;51.462;6.696;2022-12-19T09:34:35;6.50;99.90
7317;DHT22;3699;51.462;6.696;2022-12-19T09:37:03;8.40;99.90
7317;DHT22;3699;51.462;6.696;2022-12-19T09:39:30;6.50;99.90
7317;DHT22;3699;51.462;6.696;2022-12-19T09:45:10;6.60;99.90
7317;DHT22;3699;51.462;6.696;2022-12-19T09:47:43;6.60;99.90
7317;DHT22;3699;51.462;6.696;2022-12-19T09:50:24;6.70;99.90
7317;DHT22;3699;51.462;6.696;2022-12-19T09:52:57;6.70;99.90
7317;DHT22;3699;51.462;6.696;2022-12-19T09:55:30;6.80;99.90
7317;DHT22;3699;51.462;6.696;2022-12-19T09:58:02;6.80;99.90
7317;DHT22;3699;51.462;6.696;2022-12-19T10:00:34;6.80;99.90
7317;DHT22;3699;51.462;6.696;2022-12-19T10:03:06;6.80;99.90
7317;DHT22;3699;51.462;6.696;2022-12-19T10:05:42;6.80;99.90
7317;DHT22;3699;51.462;6.696;2022-12-19T10:08:15;6.90;99.90
7317;DHT22;3699;51.462;6.696;2022-12-19T10:10:54;6.90;99.90
7317;DHT22;3699;51.462;6.696;2022-12-19T10:13:35;6.90;99.90
7317;DHT22;3699;51.462;6.696;2022-12-19T10:16:11;6.90;99.90
7317;DHT22;3699;51.462;6.696;2022-12-19T10:18:50;6.90;99.90
7317;DHT22;3699;51.462;6.696;2022-12-19T10:21:36;6.90;99.90
7317;DHT22;3699;51.462;6.696;2022-12-19T10:27:10;7.00;99.90
7317;DHT22;3699;51.462;6.696;2022-12-19T10:29:56;7.00;99.90
7317;DHT22;3699;51.462;6.696;2022-12-19T10:32:33;7.10;99.90
7317;DHT22;3699;51.462;6.696;2022-12-19T10:35:11;7.10;99.90
7317;DHT22;3699;51.462;6.696;2022-12-19T10:37:44;7.10;99.90
7317;DHT22;3699;51.462;6.696;2022-12-19T10:40:16;7.20;99.90
7317;DHT22;3699;51.462;6.696;2022-12-19T10:42:52;7.20;99.90
7317;DHT22;3699;51.462;6.696;2022-12-19T10:45:21;7.20;99.90
7317;DHT22;3699;51.462;6.696;2022-12-19T10:47:55;7.30;99.90
7317;DHT22;3699;51.462;6.696;2022-12-19T10:50:26;7.30;99.90
7317;DHT22;3699;51.462;6.696;2022-12-19T10:53:04;7.40;99.90
7317;DHT22;3699;51.462;6.696;2022-12-19T10:55:40;7.40;99.90
7317;DHT22;3699;51.462;6.696;2022-12-19T10:58:18;7.50;99.90
7317;DHT22;3699;51.462;6.696;2022-12-19T11:00:57;7.50;99.90
7317;DHT22;3699;51.462;6.696;2022-12-19T11:03:26;7.50;99.90
7317;DHT22;3699;51.462;6.696;2022-12-19T11:05:54;7.50;99.90
7317;DHT22;3699;51.462;6.696;2022-12-19T11:08:31;7.70;99.90
7317;DHT22;3699;51.462;6.696;2022-12-19T11:11:10;7.50;99.90
7317;DHT22;3699;51.462;6.696;2022-12-19T11:13:40;7.50;99.90
7317;DHT22;3699;51.462;6.696;2022-12-19T11:16:08;7.50;99.90
7317;DHT22;3699;51.462;6.696;2022-12-19T11:18:36;7.50;99.90
7317;DHT22;3699;51.462;6.696;2022-12-19T11:21:06;7.50;99.90
7317;DHT22;3699;51.462;6.696;2022-12-19T11:23:47;7.50;99.90
7317;DHT22;3699;51.462;6.696;2022-12-19T11:26:27;7.50;99.90
7317;DHT22;3699;51.462;6.696;2022-12-19T11:28:55;7.50;99.90
7317;DHT22;3699;51.462;6.696;2022-12-19T11:31:24;7.50;99.90
7317;DHT22;3699;51.462;6.696;2022-12-19T11:33:54;7.50;99.90
7317;DHT22;3699;51.462;6.696;2022-12-19T11:36:31;7.40;99.90
7317;DHT22;3699;51.462;6.696;2022-12-19T11:39:03;6.50;99.90
7317;DHT22;3699;51.462;6.696;2022-12-19T11:41:34;7.50;99.90
7317;DHT22;3699;51.462;6.696;2022-12-19T11:44:06;7.50;99.90
7317;DHT22;3699;51.462;6.696;2022-12-19T11:46:41;7.50;99.90
7317;DHT22;3699;51.462;6.696;2022-12-19T11:49:14;7.50;99.90
7317;DHT22;3699;51.462;6.696;2022-12-19T11:51:51;7.60;99.90
7317;DHT22;3699;51.462;6.696;2022-12-19T11:54:26;7.60;99.90
7317;DHT22;3699;51.462;6.696;2022-12-19T11:56:55;7.60;99.90
7317;DHT22;3699;51.462;6.696;2022-12-19T11:59:28;7.60;99.90
7317;DHT22;3699;51.462;6.696;2022-12-19T12:05:08;7.70;99.90
7317;DHT22;3699;51.462;6.696;2022-12-19T12:07:41;7.80;99.90
7317;DHT22;3699;51.462;6.696;2022-12-19T12:10:17;7.80;99.90
7317;DHT22;3699;51.462;6.696;2022-12-19T12:12:55;7.90;99.90
7317;DHT22;3699;51.462;6.696;2022-12-19T12:15:34;7.90;99.90
7317;DHT22;3699;51.462;6.696;2022-12-19T12:18:15;7.90;99.90
7317;DHT22;3699;51.462;6.696;2022-12-19T12:20:51;8.00;99.90
7317;DHT22;3699;51.462;6.696;2022-12-19T12:23:24;8.00;99.90
7317;DHT22;3699;51.462;6.696;2022-12-19T12:26:02;8.10;99.90
7317;DHT22;3699;51.462;6.696;2022-12-19T12:28:58;8.10;99.90
7317;DHT22;3699;51.462;6.696;2022-12-19T12:31:37;8.10;99.90
7317;DHT22;3699;51.462;6.696;2022-12-19T12:37:08;8.20;99.90
7317;DHT22;3699;51.462;6.696;2022-12-19T12:39:41;8.10;99.90
7317;DHT22;3699;51.462;6.696;2022-12-19T12:42:20;8.10;99.90
7317;DHT22;3699;51.462;6.696;2022-12-19T12:44:56;8.10;99.90
7317;DHT22;3699;51.462;6.696;2022-12-19T12:47:26;8.10;99.90
7317;DHT22;3699;51.462;6.696;2022-12-19T12:49:55;8.10;99.90
7317;DHT22;3699;51.462;6.696;2022-12-19T12:52:29;8.20;99.90
7317;DHT22;3699;51.462;6.696;2022-12-19T12:54:58;8.30;99.90
7317;DHT22;3699;51.462;6.696;2022-12-19T12:57:37;8.30;99.90
7317;DHT22;3699;51.462;6.696;2022-12-19T13:00:16;8.40;99.90
7317;DHT22;3699;51.462;6.696;2022-12-19T13:02:46;8.40;99.90
7317;DHT22;3699;51.462;6.696;2022-12-19T13:08:31;8.50;99.90
7317;DHT22;3699;51.462;6.696;2022-12-19T13:11:01;8.60;99.90
7317;DHT22;3699;51.462;6.696;2022-12-19T13:13:50;8.50;99.90
7317;DHT22;3699;51.462;6.696;2022-12-19T13:16:47;8.50;99.90
7317;DHT22;3699;51.462;6.696;2022-12-19T13:19:15;8.60;99.90
7317;DHT22;3699;51.462;6.696;2022-12-19T13:24:44;8.60;99.90
7317;DHT22;3699;51.462;6.696;2022-12-19T13:27:34;8.70;99.90
7317;DHT22;3699;51.462;6.696;2022-12-19T13:30:12;8.70;99.90
7317;DHT22;3699;51.462;6.696;2022-12-19T13:33:07;8.70;99.90
7317;DHT22;3699;51.462;6.696;2022-12-19T13:35:35;8.70;99.90
7317;DHT22;3699;51.462;6.696;2022-12-19T13:38:15;8.70;99.90
7317;DHT22;3699;51.462;6.696;2022-12-19T13:40:57;8.70;99.90
7317;DHT22;3699;51.462;6.696;2022-12-19T13:43:34;8.60;99.90
7317;DHT22;3699;51.462;6.696;2022-12-19T13:46:34;8.70;99.90
7317;DHT22;3699;51.462;6.696;2022-12-19T13:49:05;8.70;99.90
7317;DHT22;3699;51.462;6.696;2022-12-19T13:51:41;8.70;99.90
7317;DHT22;3699;51.462;6.696;2022-12-19T13:54:18;8.70;99.90
7317;DHT22;3699;51.462;6.696;2022-12-19T13:56:45;8.60;99.90
7317;DHT22;3699;51.462;6.696;2022-12-19T13:59:12;8.60;99.90
7317;DHT22;3699;51.462;6.696;2022-12-19T14:01:40;8.60;99.90
7317;DHT22;3699;51.462;6.696;2022-12-19T14:04:09;8.60;99.90
7317;DHT22;3699;51.462;6.696;2022-12-19T14:06:42;8.70;99.90
7317;DHT22;3699;51.462;6.696;2022-12-19T14:09:20;8.50;99.90
7317;DHT22;3699;51.462;6.696;2022-12-19T14:11:48;8.50;99.90
7317;DHT22;3699;51.462;6.696;2022-12-19T14:14:17;8.50;99.90
7317;DHT22;3699;51.462;6.696;2022-12-19T14:17:06;8.40;99.90
7317;DHT22;3699;51.462;6.696;2022-12-19T14:19:39;8.30;99.90
7317;DHT22;3699;51.462;6.696;2022-12-19T14:22:09;8.30;99.90
7317;DHT22;3699;51.462;6.696;2022-12-19T14:24:37;8.40;99.90
7317;DHT22;3699;51.462;6.696;2022-12-19T14:27:07;8.30;99.90
7317;DHT22;3699;51.462;6.696;2022-12-19T14:29:41;8.30;99.90
7317;DHT22;3699;51.462;6.696;2022-12-19T14:32:10;8.30;99.90
7317;DHT22;3699;51.462;6.696;2022-12-19T14:34:38;8.10;99.90
7317;DHT22;3699;51.462;6.696;2022-12-19T14:37:05;8.20;99.90
7317;DHT22;3699;51.462;6.696;2022-12-19T14:39:33;8.20;99.90
7317;DHT22;3699;51.462;6.696;2022-12-19T14:42:03;8.20;99.90
7317;DHT22;3699;51.462;6.696;2022-12-19T14:44:50;8.20;99.90
7317;DHT22;3699;51.462;6.696;2022-12-19T14:47:23;8.20;99.90
7317;DHT22;3699;51.462;6.696;2022-12-19T14:49:51;8.20;99.90
7317;DHT22;3699;51.462;6.696;2022-12-19T14:52:39;8.20;99.90
7317;DHT22;3699;51.462;6.696;2022-12-19T14:55:14;8.10;99.90
7317;DHT22;3699;51.462;6.696;2022-12-19T14:57:52;8.40;99.90
7317;DHT22;3699;51.462;6.696;2022-12-19T15:00:26;7.90;99.90
7317;DHT22;3699;51.462;6.696;2022-12-19T15:02:57;8.10;99.90
7317;DHT22;3699;51.462;6.696;2022-12-19T15:05:25;8.10;99.90
7317;DHT22;3699;51.462;6.696;2022-12-19T15:07:54;8.10;99.90
7317;DHT22;3699;51.462;6.696;2022-12-19T15:10:22;8.00;99.90
7317;DHT22;3699;51.462;6.696;2022-12-19T15:12:56;8.10;99.90
7317;DHT22;3699;51.462;6.696;2022-12-19T15:15:42;8.10;99.90
7317;DHT22;3699;51.462;6.696;2022-12-19T15:18:21;8.10;99.90
7317;DHT22;3699;51.462;6.696;2022-12-19T15:20:49;8.10;99.90
7317;DHT22;3699;51.462;6.696;2022-12-19T15:23:16;8.50;99.90
7317;DHT22;3699;51.462;6.696;2022-12-19T15:25:42;8.10;99.90
7317;DHT22;3699;51.462;6.696;2022-12-19T15:28:13;8.20;99.90
7317;DHT22;3699;51.462;6.696;2022-12-19T15:30:40;8.10;99.90
7317;DHT22;3699;51.462;6.696;2022-12-19T15:33:11;8.10;99.90
7317;DHT22;3699;51.462;6.696;2022-12-19T15:35:43;8.10;99.90
7317;DHT22;3699;51.462;6.696;2022-12-19T15:38:10;8.20;99.90
7317;DHT22;3699;51.462;6.696;2022-12-19T15:40:40;8.20;99.90
7317;DHT22;3699;51.462;6.696;2022-12-19T15:43:14;8.20;99.90
7317;DHT22;3699;51.462;6.696;2022-12-19T15:45:41;8.20;99.90
7317;DHT22;3699;51.462;6.696;2022-12-19T15:48:12;8.20;99.90
7317;DHT22;3699;51.462;6.696;2022-12-19T15:50:40;8.30;99.90
7317;DHT22;3699;51.462;6.696;2022-12-19T15:53:18;8.20;99.90
7317;DHT22;3699;51.462;6.696;2022-12-19T15:55:46;8.40;99.90
7317;DHT22;3699;51.462;6.696;2022-12-19T15:58:14;8.30;99.90
7317;DHT22;3699;51.462;6.696;2022-12-19T16:00:46;8.30;99.90
7317;DHT22;3699;51.462;6.696;2022-12-19T16:03:14;8.30;99.90
7317;DHT22;3699;51.462;6.696;2022-12-19T16:05:41;8.20;99.90
7317;DHT22;3699;51.462;6.696;2022-12-19T16:08:11;8.30;99.90
7317;DHT22;3699;51.462;6.696;2022-12-19T16:10:39;8.30;99.90
7317;DHT22;3699;51.462;6.696;2022-12-19T16:13:13;8.20;99.90
7317;DHT22;3699;51.462;6.696;2022-12-19T16:15:41;8.40;99.90
7317;DHT22;3699;51.462;6.696;2022-12-19T16:18:11;8.40;99.90
7317;DHT22;3699;51.462;6.696;2022-12-19T16:20:39;8.40;99.90
7317;DHT22;3699;51.462;6.696;2022-12-19T16:23:07;8.40;99.90
7317;DHT22;3699;51.462;6.696;2022-12-19T16:25:37;9.00;99.90
7317;DHT22;3699;51.462;6.696;2022-12-19T16:28:06;8.50;99.90
7317;DHT22;3699;51.462;6.696;2022-12-19T16:30:34;8.50;99.90
7317;DHT22;3699;51.462;6.696;2022-12-19T16:33:01;8.50;99.90
7317;DHT22;3699;51.462;6.696;2022-12-19T16:35:29;8.40;99.90
7317;DHT22;3699;51.462;6.696;2022-12-19T16:37:55;8.40;99.90
7317;DHT22;3699;51.462;6.696;2022-12-19T16:40:23;8.50;99.90
7317;DHT22;3699;51.462;6.696;2022-12-19T16:42:58;8.50;99.90
7317;DHT22;3699;51.462;6.696;2022-12-19T16:45:31;8.50;99.90
7317;DHT22;3699;51.462;6.696;2022-12-19T16:47:58;8.50;99.90
7317;DHT22;3699;51.462;6.696;2022-12-19T16:50:27;8.50;99.90
7317;DHT22;3699;51.462;6.696;2022-12-19T16:52:54;8.50;99.90
7317;DHT22;3699;51.462;6.696;2022-12-19T16:55:23;8.50;99.90
7317;DHT22;3699;51.462;6.696;2022-12-19T16:57:51;8.50;99.90
7317;DHT22;3699;51.462;6.696;2022-12-19T17:00:22;8.50;99.90